createdAt,value
2015-12-03T00:00:42.207Z,8.5
2015-12-03T00:01:42.146Z,8.5
2015-12-03T00:02:42.105Z,8.5
2015-12-03T00:03:42.045Z,8.5
2015-12-03T00:04:41.983Z,8.5
2015-12-03T00:05:41.923Z,8.5
2015-12-03T00:06:41.879Z,8.5
2015-12-03T00:07:41.819Z,8.5
2015-12-03T00:08:41.774Z,8.5
2015-12-03T00:09:41.716Z,8.5
2015-12-03T00:10:41.658Z,8.5
2015-12-03T00:11:41.613Z,8.5
2015-12-03T00:12:41.550Z,8.5
2015-12-03T00:13:41.491Z,8.5
2015-12-03T00:14:41.431Z,8.5
2015-12-03T00:15:41.389Z,8.5
2015-12-03T00:16:41.346Z,8.5
2015-12-03T00:17:41.268Z,8.5
2015-12-03T00:18:41.224Z,8.5
2015-12-03T00:19:41.179Z,8.5
2015-12-03T00:20:41.119Z,8.6
2015-12-03T00:21:41.059Z,8.5
2015-12-03T00:22:41.015Z,8.6
2015-12-03T00:23:40.957Z,8.6
2015-12-03T00:24:40.898Z,8.6
2015-12-03T00:25:40.854Z,8.6
2015-12-03T00:26:40.794Z,8.5
2015-12-03T00:27:40.735Z,8.5
2015-12-03T00:28:40.690Z,8.5
2015-12-03T00:29:40.628Z,8.6
2015-12-03T00:30:40.572Z,8.5
2015-12-03T00:31:40.527Z,8.5
2015-12-03T00:32:40.478Z,8.6
2015-12-03T00:33:40.403Z,8.5
2015-12-03T00:34:40.361Z,8.5
2015-12-03T00:35:40.306Z,8.5
2015-12-03T00:36:40.263Z,8.5
2015-12-03T00:37:40.203Z,8.5
2015-12-03T00:38:40.140Z,8.5
2015-12-03T00:39:40.081Z,8.5
2015-12-03T00:40:40.037Z,8.5
2015-12-03T00:41:39.977Z,8.5
2015-12-03T00:42:39.917Z,8.5
2015-12-03T00:43:39.857Z,8.5
2015-12-03T00:44:39.812Z,8.5
2015-12-03T00:45:39.754Z,8.5
2015-12-03T00:46:39.709Z,8.5
2015-12-03T00:47:39.649Z,8.5
2015-12-03T00:48:39.608Z,8.6
2015-12-03T00:49:39.547Z,8.5
2015-12-03T00:50:39.485Z,8.5
2015-12-03T00:51:39.441Z,8.5
2015-12-03T00:52:39.381Z,8.4
2015-12-03T00:53:39.321Z,8.5
2015-12-03T00:54:39.277Z,8.5
2015-12-03T00:55:39.217Z,8.5
2015-12-03T00:56:39.158Z,8.5
2015-12-03T00:57:39.114Z,8.4
2015-12-03T00:58:39.054Z,8.4
2015-12-03T00:59:39.010Z,8.4
2015-12-03T01:00:38.950Z,8.4
2015-12-03T01:01:38.891Z,8.5
2015-12-03T01:02:38.847Z,8.5
2015-12-03T01:03:38.787Z,8.5
2015-12-03T01:04:38.743Z,8.5
2015-12-03T01:05:38.684Z,8.5
2015-12-03T01:06:38.621Z,8.4
2015-12-03T01:07:38.562Z,8.4
2015-12-03T01:08:38.518Z,8.4
2015-12-03T01:09:38.458Z,8.4
2015-12-03T01:10:38.414Z,8.4
2015-12-03T01:11:38.355Z,8.4
2015-12-03T01:12:38.310Z,8.3
2015-12-03T01:13:38.252Z,8.3
2015-12-03T01:14:38.191Z,8.3
2015-12-03T01:15:38.132Z,8.3
2015-12-03T01:16:38.088Z,8.3
2015-12-03T01:17:38.027Z,8.3
2015-12-03T01:18:37.968Z,8.4
2015-12-03T01:19:37.924Z,8.3
2015-12-03T01:20:37.864Z,8.3
2015-12-03T01:21:37.821Z,8.3
2015-12-03T01:22:37.758Z,8.4
2015-12-03T01:23:37.699Z,8.3
2015-12-03T01:24:37.639Z,8.3
2015-12-03T01:25:37.594Z,8.3
2015-12-03T01:26:37.535Z,8.4
2015-12-03T01:27:37.477Z,8.3
2015-12-03T01:28:37.433Z,8.3
2015-12-03T01:29:37.373Z,8.3
2015-12-03T01:30:37.329Z,8.2
2015-12-03T01:31:37.269Z,8.2
2015-12-03T01:32:37.209Z,8.2
2015-12-03T01:33:37.165Z,8.2
2015-12-03T01:34:37.105Z,8.2
2015-12-03T01:35:37.045Z,8.2
2015-12-03T01:36:37.001Z,8.2
2015-12-03T01:37:36.941Z,8.2
2015-12-03T01:38:36.882Z,8.2
2015-12-03T01:39:36.820Z,8.2
2015-12-03T01:40:36.776Z,8.2
2015-12-03T01:41:36.716Z,8.2
2015-12-03T01:42:36.671Z,8.2
2015-12-03T01:43:36.612Z,8.2
2015-12-03T01:44:36.551Z,8.2
2015-12-03T01:45:36.511Z,8.2
2015-12-03T01:46:36.450Z,8.2
2015-12-03T01:47:36.403Z,8.2
2015-12-03T01:48:36.344Z,8.2
2015-12-03T01:49:36.284Z,8.2
2015-12-03T01:50:36.225Z,8.2
2015-12-03T01:51:36.180Z,8.1
2015-12-03T01:52:36.137Z,8.2
2015-12-03T01:53:36.092Z,8.2
2015-12-03T01:54:36.016Z,8.2
2015-12-03T01:55:35.956Z,8.2
2015-12-03T01:56:35.897Z,8.2
2015-12-03T01:57:35.852Z,8.2
2015-12-03T01:58:35.839Z,8.2
2015-12-03T01:59:35.749Z,8.2
2015-12-03T02:00:35.674Z,8.2
2015-12-03T02:01:35.629Z,8.2
2015-12-03T02:02:35.569Z,8.2
2015-12-03T02:03:35.525Z,8.2
2015-12-03T02:04:35.466Z,8.2
2015-12-03T02:05:35.405Z,8.2
2015-12-03T02:06:35.361Z,8.2
2015-12-03T02:07:35.304Z,8.2
2015-12-03T02:08:35.241Z,8.2
2015-12-03T02:09:35.198Z,8.2
2015-12-03T02:10:35.137Z,8.2
2015-12-03T02:11:35.077Z,8.3
2015-12-03T02:12:35.029Z,8.3
2015-12-03T02:13:34.952Z,8.2
2015-12-03T02:14:34.870Z,8.2
2015-12-03T02:15:34.809Z,8.1
2015-12-03T02:16:34.731Z,8.1
2015-12-03T02:17:34.662Z,8.2
2015-12-03T02:18:34.612Z,8.2
2015-12-03T02:19:34.545Z,8.2
2015-12-03T02:20:34.480Z,8.2
2015-12-03T02:21:34.430Z,8.2
2015-12-03T02:22:34.367Z,8.2
2015-12-03T02:23:34.304Z,8.2
2015-12-03T02:24:34.258Z,8.2
2015-12-03T02:25:34.196Z,8.2
2015-12-03T02:26:34.134Z,8.2
2015-12-03T02:27:34.088Z,8.2
2015-12-03T02:28:34.029Z,8.2
2015-12-03T02:29:33.968Z,8.2
2015-12-03T02:30:33.922Z,8.2
2015-12-03T02:31:33.862Z,8.2
2015-12-03T02:32:33.818Z,8.2
2015-12-03T02:33:33.759Z,8.2
2015-12-03T02:34:33.699Z,8.2
2015-12-03T02:35:33.637Z,8.2
2015-12-03T02:36:33.593Z,8.2
2015-12-03T02:37:33.532Z,8.2
2015-12-03T02:38:33.488Z,8.2
2015-12-03T02:39:33.428Z,8.2
2015-12-03T02:40:33.368Z,8.2
2015-12-03T02:41:33.312Z,8.2
2015-12-03T02:42:33.268Z,8.2
2015-12-03T02:43:33.207Z,8.2
2015-12-03T02:44:33.164Z,8.2
2015-12-03T02:45:33.103Z,8.2
2015-12-03T02:46:33.041Z,8.2
2015-12-03T02:47:32.997Z,8.1
2015-12-03T02:48:32.937Z,8.1
2015-12-03T02:49:32.877Z,8.1
2015-12-03T02:50:32.833Z,8
2015-12-03T02:51:32.789Z,8.1
2015-12-03T02:52:32.714Z,8
2015-12-03T02:53:32.672Z,8.1
2015-12-03T02:54:32.612Z,8.1
2015-12-03T02:55:32.550Z,8.1
2015-12-03T02:56:32.489Z,8.1
2015-12-03T02:57:32.446Z,8.2
2015-12-03T02:58:32.386Z,8.1
2015-12-03T02:59:32.326Z,8.1
2015-12-03T03:00:32.283Z,8.1
2015-12-03T03:01:32.222Z,8.1
2015-12-03T03:02:32.163Z,8.1
2015-12-03T03:03:32.119Z,8.1
2015-12-03T03:04:32.059Z,8.1
2015-12-03T03:05:31.999Z,8.1
2015-12-03T03:06:31.955Z,8.1
2015-12-03T03:07:31.895Z,8.2
2015-12-03T03:08:31.852Z,8.2
2015-12-03T03:09:31.791Z,8.1
2015-12-03T03:10:31.733Z,8.1
2015-12-03T03:11:31.673Z,8.1
2015-12-03T03:12:31.629Z,8.1
2015-12-03T03:13:31.567Z,8.1
2015-12-03T03:14:31.523Z,8.1
2015-12-03T03:15:31.463Z,8.2
2015-12-03T03:16:31.403Z,8.1
2015-12-03T03:17:31.391Z,8.1
2015-12-03T03:18:31.301Z,8
2015-12-03T03:19:31.242Z,8
2015-12-03T03:20:31.179Z,8
2015-12-03T03:21:31.136Z,8
2015-12-03T03:22:31.075Z,8
2015-12-03T03:23:31.031Z,8
2015-12-03T03:24:30.972Z,8.1
2015-12-03T03:25:30.913Z,8
2015-12-03T03:26:30.854Z,8
2015-12-03T03:27:30.794Z,8
2015-12-03T03:28:30.750Z,8.1
2015-12-03T03:29:30.690Z,8
2015-12-03T03:30:30.630Z,8
2015-12-03T03:31:30.571Z,8
2015-12-03T03:32:30.526Z,8
2015-12-03T03:33:30.466Z,8
2015-12-03T03:34:30.422Z,8
2015-12-03T03:35:30.359Z,8
2015-12-03T03:36:30.301Z,8
2015-12-03T03:37:30.240Z,8
2015-12-03T03:38:30.196Z,8
2015-12-03T03:39:30.137Z,8
2015-12-03T03:40:30.093Z,8
2015-12-03T03:41:30.032Z,8
2015-12-03T03:42:29.973Z,8
2015-12-03T03:43:29.913Z,8
2015-12-03T03:44:29.869Z,8
2015-12-03T03:45:29.841Z,8
2015-12-03T03:46:29.781Z,8
2015-12-03T03:47:29.706Z,7.9
2015-12-03T03:48:29.645Z,7.9
2015-12-03T03:49:29.587Z,7.9
2015-12-03T03:50:29.544Z,8
2015-12-03T03:51:29.484Z,8
2015-12-03T03:52:29.437Z,8
2015-12-03T03:53:29.378Z,8
2015-12-03T03:54:29.317Z,7.9
2015-12-03T03:55:29.257Z,7.9
2015-12-03T03:56:29.197Z,7.9
2015-12-03T03:57:29.155Z,7.9
2015-12-03T03:58:29.095Z,7.9
2015-12-03T03:59:29.035Z,7.9
2015-12-03T04:00:29.075Z,8
2015-12-03T04:01:28.936Z,8
2015-12-03T04:02:28.876Z,8
2015-12-03T04:03:28.818Z,8
2015-12-03T04:04:28.774Z,8.1
2015-12-03T04:05:28.712Z,8
2015-12-03T04:06:28.651Z,7.9
2015-12-03T04:07:28.591Z,7.9
2015-12-03T04:08:28.547Z,7.8
2015-12-03T04:09:28.487Z,7.9
2015-12-03T04:10:28.431Z,7.9
2015-12-03T04:11:28.386Z,7.9
2015-12-03T04:12:28.325Z,7.9
2015-12-03T04:13:28.267Z,7.9
2015-12-03T04:14:28.222Z,7.9
2015-12-03T04:15:28.162Z,7.9
2015-12-03T04:16:28.103Z,7.9
2015-12-03T04:17:28.040Z,7.9
2015-12-03T04:18:27.996Z,8
2015-12-03T04:19:27.936Z,8
2015-12-03T04:20:27.876Z,7.9
2015-12-03T04:21:27.832Z,7.9
2015-12-03T04:22:27.772Z,7.9
2015-12-03T04:23:27.713Z,8
2015-12-03T04:24:27.684Z,8
2015-12-03T04:25:27.624Z,8
2015-12-03T04:26:27.549Z,8
2015-12-03T04:27:27.506Z,8.1
2015-12-03T04:28:27.445Z,8
2015-12-03T04:29:27.386Z,8
2015-12-03T04:30:27.343Z,8
2015-12-03T04:31:27.284Z,7.9
2015-12-03T04:32:27.221Z,7.8
2015-12-03T04:33:27.162Z,7.9
2015-12-03T04:34:27.117Z,7.9
2015-12-03T04:35:27.057Z,7.8
2015-12-03T04:36:27.000Z,7.8
2015-12-03T04:37:26.938Z,7.7
2015-12-03T04:38:26.895Z,7.8
2015-12-03T04:39:26.836Z,7.7
2015-12-03T04:40:26.775Z,7.7
2015-12-03T04:41:26.731Z,7.8
2015-12-03T04:42:26.688Z,7.7
2015-12-03T04:43:26.627Z,7.7
2015-12-03T04:44:26.568Z,7.7
2015-12-03T04:45:26.507Z,7.7
2015-12-03T04:46:26.448Z,7.6
2015-12-03T04:47:26.404Z,7.7
2015-12-03T04:48:26.344Z,7.7
2015-12-03T04:49:26.285Z,7.7
2015-12-03T04:50:26.225Z,7.6
2015-12-03T04:51:26.180Z,7.6
2015-12-03T04:52:26.121Z,7.7
2015-12-03T04:53:26.061Z,7.6
2015-12-03T04:54:26.001Z,7.6
2015-12-03T04:55:25.958Z,7.6
2015-12-03T04:56:25.897Z,7.6
2015-12-03T04:57:25.838Z,7.6
2015-12-03T04:58:25.791Z,7.7
2015-12-03T04:59:25.732Z,7.7
2015-12-03T05:00:25.671Z,7.7
2015-12-03T05:01:25.612Z,7.6
2015-12-03T05:02:25.568Z,7.6
2015-12-03T05:03:25.510Z,7.6
2015-12-03T05:04:25.450Z,7.6
2015-12-03T05:05:25.403Z,7.6
2015-12-03T05:06:25.343Z,7.6
2015-12-03T05:07:25.284Z,7.6
2015-12-03T05:08:25.240Z,7.6
2015-12-03T05:09:25.180Z,7.6
2015-12-03T05:10:25.137Z,7.6
2015-12-03T05:11:25.077Z,7.5
2015-12-03T05:12:25.012Z,7.6
2015-12-03T05:13:24.934Z,7.6
2015-12-03T05:14:24.890Z,7.6
2015-12-03T05:15:24.829Z,7.6
2015-12-03T05:16:24.767Z,7.6
2015-12-03T05:17:24.723Z,7.6
2015-12-03T05:18:24.663Z,7.5
2015-12-03T05:19:24.603Z,7.6
2015-12-03T05:20:24.559Z,7.5
2015-12-03T05:21:24.500Z,7.5
2015-12-03T05:22:24.441Z,7.6
2015-12-03T05:23:24.397Z,7.5
2015-12-03T05:24:24.338Z,7.5
2015-12-03T05:25:24.278Z,7.5
2015-12-03T05:26:24.216Z,7.5
2015-12-03T05:27:24.172Z,7.6
2015-12-03T05:28:24.112Z,7.5
2015-12-03T05:29:24.052Z,7.5
2015-12-03T05:30:24.007Z,7.6
2015-12-03T05:31:23.950Z,7.6
2015-12-03T05:32:23.890Z,7.6
2015-12-03T05:33:23.846Z,7.5
2015-12-03T05:34:23.786Z,7.6
2015-12-03T05:35:23.727Z,7.6
2015-12-03T05:36:23.666Z,7.5
2015-12-03T05:37:23.607Z,7.5
2015-12-03T05:38:23.563Z,7.5
2015-12-03T05:39:23.504Z,7.5
2015-12-03T05:40:23.454Z,7.5
2015-12-03T05:41:23.393Z,7.5
2015-12-03T05:42:23.331Z,7.5
2015-12-03T05:43:23.286Z,7.5
2015-12-03T05:44:23.227Z,7.5
2015-12-03T05:45:23.167Z,7.5
2015-12-03T05:46:23.108Z,7.6
2015-12-03T05:47:23.064Z,7.6
2015-12-03T05:48:23.003Z,7.5
2015-12-03T05:49:22.944Z,7.5
2015-12-03T05:50:22.884Z,7.5
2015-12-03T05:51:22.949Z,7.5
2015-12-03T05:52:22.780Z,7.5
2015-12-03T05:53:22.720Z,7.5
2015-12-03T05:54:22.676Z,7.5
2015-12-03T05:55:22.617Z,7.5
2015-12-03T05:56:22.557Z,7.5
2015-12-03T05:57:22.497Z,7.4
2015-12-03T05:58:22.453Z,7.4
2015-12-03T05:59:22.394Z,7.4
2015-12-03T06:00:22.334Z,7.4
2015-12-03T06:01:22.274Z,7.4
2015-12-03T06:02:22.230Z,7.4
2015-12-03T06:03:22.170Z,7.4
2015-12-03T06:04:22.112Z,7.4
2015-12-03T06:05:22.049Z,7.5
2015-12-03T06:06:22.004Z,7.5
2015-12-03T06:07:21.945Z,7.5
2015-12-03T06:08:21.885Z,7.5
2015-12-03T06:09:21.841Z,7.5
2015-12-03T06:10:21.783Z,7.5
2015-12-03T06:11:21.723Z,7.5
2015-12-03T06:12:21.664Z,7.5
2015-12-03T06:13:21.619Z,7.5
2015-12-03T06:14:21.560Z,7.6
2015-12-03T06:15:21.500Z,7.6
2015-12-03T06:16:21.440Z,7.5
2015-12-03T06:17:21.396Z,7.5
2015-12-03T06:18:21.352Z,7.5
2015-12-03T06:19:21.276Z,7.5
2015-12-03T06:20:21.233Z,7.5
2015-12-03T06:21:21.172Z,7.5
2015-12-03T06:22:21.113Z,7.5
2015-12-03T06:23:21.052Z,7.5
2015-12-03T06:24:21.009Z,7.5
2015-12-03T06:25:20.950Z,7.5
2015-12-03T06:26:20.889Z,7.6
2015-12-03T06:27:20.843Z,7.5
2015-12-03T06:28:20.782Z,7.5
2015-12-03T06:29:20.723Z,7.6
2015-12-03T06:30:20.662Z,7.6
2015-12-03T06:31:20.619Z,7.5
2015-12-03T06:32:20.559Z,7.4
2015-12-03T06:33:20.499Z,7.4
2015-12-03T06:34:20.440Z,7.4
2015-12-03T06:35:20.380Z,7.4
2015-12-03T06:36:20.320Z,7.4
2015-12-03T06:37:20.277Z,7.4
2015-12-03T06:38:20.217Z,7.4
2015-12-03T06:39:20.157Z,7.4
2015-12-03T06:40:20.097Z,7.4
2015-12-03T06:41:20.052Z,7.3
2015-12-03T06:42:19.995Z,7.3
2015-12-03T06:43:19.932Z,7.3
2015-12-03T06:44:19.872Z,7.3
2015-12-03T06:45:19.828Z,7.3
2015-12-03T06:46:19.768Z,7.3
2015-12-03T06:47:19.709Z,7.4
2015-12-03T06:48:19.664Z,7.3
2015-12-03T06:49:19.606Z,7.3
2015-12-03T06:50:19.546Z,7.3
2015-12-03T06:51:19.486Z,7.3
2015-12-03T06:52:19.442Z,7.2
2015-12-03T06:53:19.382Z,7.3
2015-12-03T06:54:19.338Z,7.3
2015-12-03T06:55:19.280Z,7.2
2015-12-03T06:56:19.217Z,7.2
2015-12-03T06:57:19.173Z,7.2
2015-12-03T06:58:19.113Z,7.1
2015-12-03T06:59:19.053Z,7
2015-12-03T07:00:18.993Z,7
2015-12-03T07:01:18.951Z,6.9
2015-12-03T07:02:18.892Z,6.9
2015-12-03T07:03:18.832Z,6.9
2015-12-03T07:04:18.787Z,6.8
2015-12-03T07:05:18.729Z,6.8
2015-12-03T07:06:18.668Z,6.8
2015-12-03T07:07:18.608Z,6.8
2015-12-03T07:08:18.565Z,6.9
2015-12-03T07:09:18.504Z,6.9
2015-12-03T07:10:18.461Z,6.9
2015-12-03T07:11:18.401Z,6.7
2015-12-03T07:12:18.339Z,6.7
2015-12-03T07:13:18.279Z,6.7
2015-12-03T07:14:18.234Z,6.6
2015-12-03T07:15:18.174Z,6.6
2015-12-03T07:16:18.114Z,6.6
2015-12-03T07:17:18.071Z,6.7
2015-12-03T07:18:18.011Z,6.6
2015-12-03T07:19:17.951Z,6.6
2015-12-03T07:20:17.892Z,6.5
2015-12-03T07:21:17.847Z,6.5
2015-12-03T07:22:17.788Z,6.6
2015-12-03T07:23:17.730Z,6.6
2015-12-03T07:24:17.686Z,6.6
2015-12-03T07:25:17.624Z,6.6
2015-12-03T07:26:17.563Z,6.6
2015-12-03T07:27:17.519Z,6.6
2015-12-03T07:28:17.459Z,6.6
2015-12-03T07:29:17.399Z,6.7
2015-12-03T07:30:17.342Z,6.7
2015-12-03T07:31:17.297Z,6.7
2015-12-03T07:32:17.236Z,6.7
2015-12-03T07:33:17.192Z,6.7
2015-12-03T07:34:17.134Z,6.6
2015-12-03T07:35:17.074Z,6.6
2015-12-03T07:36:17.012Z,6.6
2015-12-03T07:37:16.967Z,6.5
2015-12-03T07:38:16.909Z,6.5
2015-12-03T07:39:16.848Z,6.5
2015-12-03T07:40:16.789Z,6.5
2015-12-03T07:41:16.745Z,6.4
2015-12-03T07:42:16.686Z,6.4
2015-12-03T07:43:16.626Z,6.4
2015-12-03T07:44:16.583Z,6.5
2015-12-03T07:45:16.522Z,6.6
2015-12-03T07:46:16.479Z,6.5
2015-12-03T07:47:16.419Z,6.6
2015-12-03T07:48:16.372Z,6.6
2015-12-03T07:49:16.313Z,6.6
2015-12-03T07:50:16.253Z,6.6
2015-12-03T07:51:16.194Z,6.5
2015-12-03T07:52:16.149Z,6.6
2015-12-03T07:53:16.091Z,6.6
2015-12-03T07:54:16.063Z,6.6
2015-12-03T07:55:15.988Z,6.6
2015-12-03T07:56:15.925Z,6.7
2015-12-03T07:57:15.880Z,6.8
2015-12-03T07:58:15.837Z,6.9
2015-12-03T07:59:15.761Z,6.9
2015-12-03T08:00:15.708Z,7.1
2015-12-03T08:01:15.648Z,7.2
2015-12-03T08:02:15.605Z,7.3
2015-12-03T08:03:15.561Z,7.4
2015-12-03T08:04:15.483Z,7.4
2015-12-03T08:05:15.439Z,7.3
2015-12-03T08:06:15.396Z,7.3
2015-12-03T08:07:15.336Z,7.4
2015-12-03T08:08:15.276Z,7.5
2015-12-03T08:09:15.232Z,7.6
2015-12-03T08:10:15.171Z,7.8
2015-12-03T08:11:15.113Z,7.9
2015-12-03T08:12:15.068Z,8.1
2015-12-03T08:13:15.007Z,8.5
2015-12-03T08:14:14.964Z,9.3
2015-12-03T08:15:14.904Z,10
2015-12-03T08:16:14.860Z,10.5
2015-12-03T08:17:14.801Z,10.9
2015-12-03T08:18:14.756Z,11.2
2015-12-03T08:19:14.696Z,11.5
2015-12-03T08:20:14.652Z,11.5
2015-12-03T08:21:14.592Z,11.7
2015-12-03T08:22:14.548Z,11.7
2015-12-03T08:23:14.504Z,11.7
2015-12-03T08:24:14.445Z,11.9
2015-12-03T08:25:14.385Z,12
2015-12-03T08:26:14.341Z,11.9
2015-12-03T08:27:14.283Z,11.8
2015-12-03T08:28:14.238Z,11.6
2015-12-03T08:29:14.175Z,12
2015-12-03T08:30:14.131Z,12.3
2015-12-03T08:31:14.088Z,12.6
2015-12-03T08:32:14.028Z,13
2015-12-03T08:33:13.983Z,13.1
2015-12-03T08:34:13.940Z,13.2
2015-12-03T08:35:13.881Z,13.2
2015-12-03T08:36:13.836Z,13
2015-12-03T08:37:13.776Z,12.7
2015-12-03T08:38:13.733Z,12.7
2015-12-03T08:39:13.689Z,12.9
2015-12-03T08:40:13.628Z,13.1
2015-12-03T08:41:13.583Z,13.2
2015-12-03T08:42:13.539Z,13.4
2015-12-03T08:43:13.482Z,13.4
2015-12-03T08:44:13.438Z,13
2015-12-03T08:45:13.391Z,12.5
2015-12-03T08:46:13.331Z,12.1
2015-12-03T08:47:13.287Z,11.5
2015-12-03T08:48:13.226Z,11.4
2015-12-03T08:49:13.183Z,11.5
2015-12-03T08:50:13.124Z,12
2015-12-03T08:51:13.095Z,12.2
2015-12-03T08:52:13.035Z,12.6
2015-12-03T08:53:12.976Z,12.8
2015-12-03T08:54:12.934Z,12.8
2015-12-03T08:55:12.873Z,12.5
2015-12-03T08:56:12.826Z,12.5
2015-12-03T08:57:12.767Z,12.4
2015-12-03T08:58:12.722Z,12.8
2015-12-03T08:59:12.663Z,13.2
2015-12-03T09:00:12.609Z,13.4
2015-12-03T09:01:12.565Z,13.6
2015-12-03T09:02:12.521Z,13.7
2015-12-03T09:03:12.461Z,13.9
2015-12-03T09:04:12.417Z,14.4
2015-12-03T09:05:12.357Z,14.1
2015-12-03T09:06:12.312Z,14
2015-12-03T09:07:12.269Z,14
2015-12-03T09:08:12.209Z,13.8
2015-12-03T09:09:12.164Z,14
2015-12-03T09:10:12.120Z,14.5
2015-12-03T09:11:12.061Z,15.2
2015-12-03T09:12:12.016Z,15.3
2015-12-03T09:13:11.973Z,15.2
2015-12-03T09:14:11.914Z,14.7
2015-12-03T09:15:11.869Z,14.8
2015-12-03T09:16:11.825Z,15.2
2015-12-03T09:17:11.781Z,15.6
2015-12-03T09:18:11.720Z,15.7
2015-12-03T09:19:11.677Z,15.7
2015-12-03T09:20:11.633Z,14.8
2015-12-03T09:21:11.589Z,15.1
2015-12-03T09:22:11.529Z,15
2015-12-03T09:23:11.484Z,15
2015-12-03T09:24:11.441Z,14.3
2015-12-03T09:25:11.381Z,14.6
2015-12-03T09:26:11.337Z,14.9
2015-12-03T09:27:11.277Z,15.1
2015-12-03T09:28:11.264Z,14.2
2015-12-03T09:29:11.189Z,14.6
2015-12-03T09:30:11.145Z,15.3
2015-12-03T09:31:11.086Z,14.1
2015-12-03T09:32:11.041Z,13.6
2015-12-03T09:33:10.981Z,13.8
2015-12-03T09:34:10.937Z,14.3
2015-12-03T09:35:10.892Z,14.7
2015-12-03T09:36:10.849Z,14
2015-12-03T09:37:10.786Z,14.4
2015-12-03T09:38:10.726Z,14.7
2015-12-03T09:39:10.683Z,15.2
2015-12-03T09:40:10.622Z,15.1
2015-12-03T09:41:10.578Z,15.1
2015-12-03T09:42:10.534Z,15.1
2015-12-03T09:43:10.474Z,15.5
2015-12-03T09:44:10.430Z,14.9
2015-12-03T09:45:10.386Z,15.1
2015-12-03T09:46:10.326Z,13.8
2015-12-03T09:47:10.283Z,13.9
2015-12-03T09:48:10.222Z,14.1
2015-12-03T09:49:10.178Z,14.8
2015-12-03T09:50:10.134Z,15.7
2015-12-03T09:51:10.075Z,15.7
2015-12-03T09:52:10.030Z,14.9
2015-12-03T09:53:09.971Z,13.4
2015-12-03T09:54:09.927Z,12.9
2015-12-03T09:55:09.882Z,12.9
2015-12-03T09:56:09.822Z,12.8
2015-12-03T09:57:09.779Z,12.1
2015-12-03T09:58:09.718Z,11.6
2015-12-03T09:59:09.659Z,11.2
2015-12-03T10:00:09.615Z,11.2
2015-12-03T10:01:09.571Z,11
2015-12-03T10:02:09.511Z,11.2
2015-12-03T10:03:09.451Z,11.3
2015-12-03T10:04:09.408Z,11.1
2015-12-03T10:05:09.347Z,11.2
2015-12-03T10:06:09.304Z,10.9
2015-12-03T10:07:09.251Z,10.9
2015-12-03T10:08:09.191Z,10.7
2015-12-03T10:09:09.131Z,10.7
2015-12-03T10:10:09.087Z,10.7
2015-12-03T10:11:09.028Z,10.9
2015-12-03T10:12:08.984Z,11.6
2015-12-03T10:13:08.923Z,12
2015-12-03T10:14:08.879Z,12.9
2015-12-03T10:15:08.820Z,13.4
2015-12-03T10:16:08.773Z,13.1
2015-12-03T10:17:08.728Z,13.1
2015-12-03T10:18:08.669Z,13
2015-12-03T10:19:08.609Z,12
2015-12-03T10:20:08.565Z,12.4
2015-12-03T10:21:08.506Z,12.3
2015-12-03T10:22:08.445Z,12
2015-12-03T10:23:08.387Z,12.4
2015-12-03T10:24:08.342Z,12.6
2015-12-03T10:25:08.297Z,12.3
2015-12-03T10:26:08.238Z,12.4
2015-12-03T10:27:08.194Z,12.5
2015-12-03T10:28:08.134Z,13.2
2015-12-03T10:29:08.090Z,13.4
2015-12-03T10:30:08.031Z,13.8
2015-12-03T10:31:07.986Z,14.4
2015-12-03T10:32:07.926Z,14.9
2015-12-03T10:33:07.882Z,15
2015-12-03T10:34:07.838Z,15.5
2015-12-03T10:35:07.778Z,15.5
2015-12-03T10:36:07.735Z,15.1
2015-12-03T10:37:07.690Z,14.6
2015-12-03T10:38:07.631Z,13.8
2015-12-03T10:39:07.602Z,13.4
2015-12-03T10:40:07.542Z,12.7
2015-12-03T10:41:07.483Z,12
2015-12-03T10:42:07.439Z,11.9
2015-12-03T10:43:07.379Z,12
2015-12-03T10:44:07.334Z,11.6
2015-12-03T10:45:07.275Z,11.3
2015-12-03T10:46:07.215Z,10.9
2015-12-03T10:47:07.170Z,10.8
2015-12-03T10:48:07.143Z,10.9
2015-12-03T10:49:07.051Z,11
2015-12-03T10:50:07.007Z,10.9
2015-12-03T10:51:06.960Z,11.2
2015-12-03T10:52:06.900Z,12.3
2015-12-03T10:53:06.856Z,13.5
2015-12-03T10:54:06.812Z,14.1
2015-12-03T10:55:06.752Z,15.2
2015-12-03T10:56:06.692Z,16.1
2015-12-03T10:57:06.650Z,16.7
2015-12-03T10:58:06.605Z,16.3
2015-12-03T10:59:06.561Z,16.9
2015-12-03T11:00:06.501Z,17.4
2015-12-03T11:01:06.456Z,17
2015-12-03T11:02:06.413Z,17.4
2015-12-03T11:03:06.368Z,17.4
2015-12-03T11:04:06.309Z,17.5
2015-12-03T11:05:06.265Z,17
2015-12-03T11:06:06.220Z,15.8
2015-12-03T11:07:06.177Z,14.6
2015-12-03T11:08:06.116Z,14
2015-12-03T11:09:06.072Z,13.2
2015-12-03T11:10:06.013Z,12.9
2015-12-03T11:11:05.969Z,12.6
2015-12-03T11:12:05.908Z,12.4
2015-12-03T11:13:05.864Z,12.2
2015-12-03T11:14:05.820Z,12.2
2015-12-03T11:15:05.760Z,12.7
2015-12-03T11:16:05.716Z,13.6
2015-12-03T11:17:05.671Z,14.8
2015-12-03T11:18:05.612Z,16.3
2015-12-03T11:19:05.560Z,17
2015-12-03T11:20:05.507Z,16.8
2015-12-03T11:21:05.454Z,17.1
2015-12-03T11:22:05.383Z,17
2015-12-03T11:23:05.336Z,15.9
2015-12-03T11:24:05.270Z,14.9
2015-12-03T11:25:05.223Z,14.3
2015-12-03T11:26:05.177Z,13.9
2015-12-03T11:27:05.113Z,13.7
2015-12-03T11:28:05.065Z,13.5
2015-12-03T11:29:05.006Z,13.3
2015-12-03T11:30:04.960Z,13.2
2015-12-03T11:31:04.913Z,13.1
2015-12-03T11:32:04.852Z,13.1
2015-12-03T11:33:04.808Z,13.4
2015-12-03T11:34:04.747Z,14.6
2015-12-03T11:35:04.702Z,15.6
2015-12-03T11:36:04.644Z,16.4
2015-12-03T11:37:04.598Z,16.8
2015-12-03T11:38:04.555Z,16.8
2015-12-03T11:39:04.492Z,17.1
2015-12-03T11:40:04.449Z,17.6
2015-12-03T11:41:04.404Z,17.4
2015-12-03T11:42:04.359Z,17.2
2015-12-03T11:43:04.299Z,17.2
2015-12-03T11:44:04.255Z,16.9
2015-12-03T11:45:04.212Z,16.8
2015-12-03T11:46:04.169Z,16.7
2015-12-03T11:47:04.109Z,17.1
2015-12-03T11:48:04.062Z,17.6
2015-12-03T11:49:04.017Z,17.1
2015-12-03T11:50:03.974Z,16.9
2015-12-03T11:51:03.913Z,17.1
2015-12-03T11:52:03.869Z,16.9
2015-12-03T11:53:03.827Z,17.4
2015-12-03T11:54:03.782Z,17.4
2015-12-03T11:55:03.739Z,17.5
2015-12-03T11:56:03.680Z,17.7
2015-12-03T11:57:03.636Z,17.6
2015-12-03T11:58:03.589Z,17.6
2015-12-03T11:59:03.560Z,17.7
2015-12-03T12:00:03.485Z,18.2
2015-12-03T12:01:03.441Z,19
2015-12-03T12:02:03.397Z,19.1
2015-12-03T12:03:03.353Z,19
2015-12-03T12:04:03.309Z,18.5
2015-12-03T12:05:03.267Z,18.2
2015-12-03T12:06:03.223Z,18.1
2015-12-03T12:07:03.160Z,18.2
2015-12-03T12:08:03.116Z,18.3
2015-12-03T12:09:03.071Z,18.6
2015-12-03T12:10:03.012Z,19
2015-12-03T12:11:02.968Z,19.8
2015-12-03T12:12:02.940Z,20.2
2015-12-03T12:13:02.882Z,20.2
2015-12-03T12:14:02.838Z,20.6
2015-12-03T12:15:02.792Z,20
2015-12-03T12:16:02.747Z,20.4
2015-12-03T12:17:02.686Z,21
2015-12-03T12:18:02.642Z,20.9
2015-12-03T12:19:02.598Z,21.1
2015-12-03T12:20:02.554Z,20
2015-12-03T12:21:02.513Z,19.5
2015-12-03T12:22:02.450Z,18.8
2015-12-03T12:23:02.406Z,18
2015-12-03T12:24:02.377Z,17.9
2015-12-03T12:25:02.318Z,18.5
2015-12-03T12:26:02.273Z,18.3
2015-12-03T12:27:02.244Z,17.2
2015-12-03T12:28:02.188Z,17.3
2015-12-03T12:29:02.127Z,17.5
2015-12-03T12:30:02.084Z,17.3
2015-12-03T12:31:02.037Z,17.6
2015-12-03T12:32:01.977Z,17.7
2015-12-03T12:33:01.932Z,17.2
2015-12-03T12:34:01.889Z,16.7
2015-12-03T12:35:01.829Z,16.7
2015-12-03T12:36:01.787Z,16
2015-12-03T12:37:01.743Z,16.6
2015-12-03T12:38:01.683Z,16.7
2015-12-03T12:39:01.636Z,16.7
2015-12-03T12:40:01.593Z,16.8
2015-12-03T12:41:01.533Z,16.5
2015-12-03T12:42:01.504Z,16.5
2015-12-03T12:43:01.444Z,16.6
2015-12-03T12:44:01.387Z,16.9
2015-12-03T12:45:01.343Z,16.9
2015-12-03T12:46:01.296Z,16.8
2015-12-03T12:47:01.237Z,16.2
2015-12-03T12:48:01.192Z,16.1
2015-12-03T12:49:01.148Z,15.8
2015-12-03T12:50:01.088Z,15.5
2015-12-03T12:51:01.045Z,16.4
2015-12-03T12:52:01.000Z,17.3
2015-12-03T12:53:00.940Z,17.6
2015-12-03T12:54:00.897Z,17.9
2015-12-03T12:55:00.853Z,18
2015-12-03T12:56:00.808Z,18
2015-12-03T12:57:00.764Z,17.6
2015-12-03T12:58:00.704Z,17.4
2015-12-03T12:59:00.660Z,16.5
2015-12-03T13:00:00.601Z,15.8
2015-12-03T13:01:00.556Z,15.4
2015-12-03T13:02:00.512Z,14.9
2015-12-03T13:03:00.467Z,14.5
2015-12-03T13:04:00.409Z,14.4
2015-12-03T13:05:00.451Z,14.6
2015-12-03T13:06:00.314Z,14.6
2015-12-03T13:07:00.270Z,15.3
2015-12-03T13:08:00.364Z,16
2015-12-03T13:09:00.258Z,16.5
2015-12-03T13:10:00.198Z,17.1
2015-12-03T13:11:00.061Z,17.1
2015-12-03T13:12:00.030Z,17.2
2015-12-03T13:12:59.954Z,17
2015-12-03T13:13:59.911Z,16.9
2015-12-03T13:14:59.850Z,17
2015-12-03T13:15:59.806Z,17.1
2015-12-03T13:16:59.754Z,17
2015-12-03T13:17:59.742Z,16.8
2015-12-03T13:18:59.636Z,16.4
2015-12-03T13:19:59.624Z,16.3
2015-12-03T13:20:59.546Z,16.2
2015-12-03T13:21:59.487Z,15.6
2015-12-03T13:23:00.130Z,15.5
2015-12-03T13:23:59.617Z,15.6
2015-12-03T13:24:59.525Z,15.4
2015-12-03T13:25:59.638Z,15
2015-12-03T13:26:59.313Z,14.8
2015-12-03T13:27:59.253Z,14.7
2015-12-03T13:28:59.131Z,14.5
2015-12-03T13:29:59.086Z,14.4
2015-12-03T13:30:59.027Z,14
2015-12-03T13:31:58.983Z,13.8
2015-12-03T13:32:58.923Z,13.6
2015-12-03T13:33:58.879Z,13.6
2015-12-03T13:34:58.819Z,13.7
2015-12-03T13:35:58.775Z,13.7
2015-12-03T13:36:58.716Z,13.4
2015-12-03T13:37:58.671Z,13.3
2015-12-03T13:38:58.628Z,13.4
2015-12-03T13:39:58.552Z,13.1
2015-12-03T13:40:58.508Z,13.2